createdAt,value
2017-12-11T00:01:23.473Z,4.00
2017-12-11T00:03:50.943Z,3.90
2017-12-11T00:06:18.346Z,3.90
2017-12-11T00:08:45.750Z,3.90
2017-12-11T00:11:13.962Z,3.80
2017-12-11T00:13:41.395Z,3.80
2017-12-11T00:16:16.257Z,3.80
2017-12-11T00:18:43.665Z,3.80
2017-12-11T00:21:11.110Z,3.80
2017-12-11T00:23:38.522Z,3.80
2017-12-11T00:26:06.042Z,3.80
2017-12-11T00:28:33.449Z,3.80
2017-12-11T00:31:00.867Z,3.70
2017-12-11T00:33:28.268Z,3.70
2017-12-11T00:35:55.726Z,3.70
2017-12-11T00:38:23.177Z,3.70
2017-12-11T00:40:50.598Z,3.60
2017-12-11T00:43:18.002Z,3.60
2017-12-11T00:45:46.209Z,3.50
2017-12-11T00:48:13.614Z,3.50
2017-12-11T00:50:41.067Z,3.50
2017-12-11T00:53:08.513Z,3.50
2017-12-11T00:55:35.933Z,3.40
2017-12-11T00:58:03.338Z,3.40
2017-12-11T01:00:30.809Z,3.40
2017-12-11T01:02:58.224Z,3.30
2017-12-11T01:05:25.629Z,3.20
2017-12-11T01:07:53.816Z,3.10
2017-12-11T01:10:21.990Z,3.10
2017-12-11T01:12:50.170Z,3.10
2017-12-11T01:15:17.680Z,3.00
2017-12-11T01:17:45.138Z,3.00
2017-12-11T01:20:12.562Z,2.90
2017-12-11T01:22:40.014Z,2.90
2017-12-11T01:25:08.087Z,2.80
2017-12-11T01:27:35.597Z,2.80
2017-12-11T01:30:03.014Z,2.80
2017-12-11T01:32:31.209Z,2.70
2017-12-11T01:34:58.682Z,2.70
2017-12-11T01:37:26.089Z,2.70
2017-12-11T01:39:53.527Z,2.70
2017-12-11T01:42:20.936Z,2.60
2017-12-11T01:44:48.375Z,2.60
2017-12-11T01:47:16.538Z,2.60
2017-12-11T01:49:44.722Z,2.50
2017-12-11T01:52:12.940Z,2.50
2017-12-11T01:54:40.355Z,2.50
2017-12-11T01:57:07.774Z,2.50
2017-12-11T01:59:35.194Z,2.50
2017-12-11T02:02:02.612Z,2.50
2017-12-11T02:04:30.084Z,2.50
2017-12-11T02:06:57.496Z,2.50
2017-12-11T02:09:24.914Z,2.40
2017-12-11T02:11:52.488Z,2.40
2017-12-11T02:14:19.903Z,2.30
2017-12-11T02:16:47.338Z,2.30
2017-12-11T02:19:14.790Z,2.30
2017-12-11T02:21:42.262Z,2.30
2017-12-11T02:24:09.756Z,2.30
2017-12-11T02:26:37.216Z,2.20
2017-12-11T02:29:05.397Z,2.20
2017-12-11T02:31:32.798Z,2.10
2017-12-11T02:34:00.220Z,2.10
2017-12-11T02:36:27.700Z,2.00
2017-12-11T02:38:55.875Z,2.00
2017-12-11T02:41:24.045Z,1.90
2017-12-11T02:43:52.226Z,1.90
2017-12-11T02:46:19.646Z,1.90
2017-12-11T02:48:47.053Z,1.90
2017-12-11T02:51:14.481Z,1.80
2017-12-11T02:53:41.892Z,1.80
2017-12-11T02:56:09.412Z,1.80
2017-12-11T02:58:37.589Z,1.80
2017-12-11T03:01:05.833Z,1.80
2017-12-11T03:03:33.238Z,1.70
2017-12-11T03:06:00.650Z,1.70
2017-12-11T03:08:28.054Z,1.70
2017-12-11T03:10:56.243Z,1.70
2017-12-11T03:13:23.641Z,1.70
2017-12-11T03:15:51.075Z,1.60
2017-12-11T03:18:18.478Z,1.60
2017-12-11T03:20:45.903Z,1.60
2017-12-11T03:23:13.315Z,1.60
2017-12-11T03:25:40.796Z,1.60
2017-12-11T03:28:08.194Z,1.60
2017-12-11T03:30:35.730Z,1.60
2017-12-11T03:33:03.139Z,1.60
2017-12-11T03:35:30.551Z,1.60
2017-12-11T03:37:57.983Z,1.60
2017-12-11T03:40:25.494Z,1.60
2017-12-11T03:42:52.967Z,1.60
2017-12-11T03:45:20.456Z,1.50
2017-12-11T03:47:47.909Z,1.50
2017-12-11T03:50:15.369Z,1.50
2017-12-11T03:52:42.774Z,1.50
2017-12-11T03:55:10.203Z,1.50
2017-12-11T03:57:37.640Z,1.60
2017-12-11T04:00:05.174Z,1.60
2017-12-11T04:02:32.569Z,1.50
2017-12-11T04:05:00.798Z,1.50
2017-12-11T04:07:28.955Z,1.50
2017-12-11T04:09:57.121Z,1.50
2017-12-11T04:12:24.632Z,1.50
2017-12-11T04:14:52.120Z,1.50
2017-12-11T04:17:19.595Z,1.50
2017-12-11T04:19:46.990Z,1.50
2017-12-11T04:22:14.410Z,1.40
2017-12-11T04:24:41.829Z,1.50
2017-12-11T04:27:09.274Z,1.50
2017-12-11T04:29:36.678Z,1.40
2017-12-11T04:32:04.086Z,1.40
2017-12-11T04:34:31.508Z,1.40
2017-12-11T04:36:58.910Z,1.50
2017-12-11T04:39:26.392Z,1.40
2017-12-11T04:41:53.815Z,1.40
2017-12-11T04:44:21.328Z,1.40
2017-12-11T04:46:49.487Z,1.40
2017-12-11T04:49:17.666Z,1.40
2017-12-11T04:51:45.858Z,1.30
2017-12-11T04:54:13.251Z,1.30
2017-12-11T04:56:40.670Z,1.30
2017-12-11T04:59:08.082Z,1.40
2017-12-11T05:01:35.497Z,1.30
2017-12-11T05:04:02.918Z,1.40
2017-12-11T05:06:30.395Z,1.40
2017-12-11T05:08:57.853Z,1.30
2017-12-11T05:11:25.274Z,1.30
2017-12-11T05:13:52.689Z,1.40
2017-12-11T05:16:20.105Z,1.40
2017-12-11T05:18:47.525Z,1.40
2017-12-11T05:21:14.985Z,1.40
2017-12-11T05:23:42.405Z,1.40
2017-12-11T05:26:09.830Z,1.40
2017-12-11T05:28:37.242Z,1.40
2017-12-11T05:31:04.658Z,1.50
2017-12-11T05:33:32.139Z,1.50
2017-12-11T05:35:59.559Z,1.50
2017-12-11T05:38:26.986Z,1.50
2017-12-11T05:40:54.403Z,1.40
2017-12-11T05:43:21.822Z,1.40
2017-12-11T05:45:49.237Z,1.50
2017-12-11T05:48:16.651Z,1.50
2017-12-11T05:50:44.077Z,1.40
2017-12-11T05:53:11.506Z,1.40
2017-12-11T05:55:38.990Z,1.40
2017-12-11T05:58:06.418Z,1.40
2017-12-11T06:00:33.833Z,1.40
2017-12-11T06:03:01.267Z,1.50
2017-12-11T06:05:28.693Z,1.40
2017-12-11T06:07:56.865Z,1.40
2017-12-11T06:10:24.275Z,1.40
2017-12-11T06:12:51.744Z,1.40
2017-12-11T06:15:19.189Z,1.40
2017-12-11T06:17:47.346Z,1.40
2017-12-11T06:20:14.788Z,1.40
2017-12-11T06:22:42.189Z,1.40
2017-12-11T06:25:09.602Z,1.40
2017-12-11T06:27:37.191Z,1.40
2017-12-11T06:30:04.643Z,1.40
2017-12-11T06:32:32.051Z,1.40
2017-12-11T06:34:59.594Z,1.40
2017-12-11T06:37:28.546Z,1.40
2017-12-11T06:39:56.058Z,1.40
2017-12-11T06:42:23.470Z,1.40
2017-12-11T06:44:50.894Z,1.40
2017-12-11T06:47:18.297Z,1.40
2017-12-11T06:49:45.705Z,1.40
2017-12-11T06:52:13.939Z,1.40
2017-12-11T06:54:41.383Z,1.40
2017-12-11T06:57:09.621Z,1.40
2017-12-11T06:59:37.015Z,1.40
2017-12-11T07:02:05.227Z,1.40
2017-12-11T07:04:32.638Z,1.40
2017-12-11T07:07:00.060Z,1.50
2017-12-11T07:09:27.513Z,1.50
2017-12-11T07:11:54.934Z,1.50
2017-12-11T07:14:22.334Z,1.50
2017-12-11T07:16:50.525Z,1.50
2017-12-11T07:19:18.759Z,1.50
2017-12-11T07:21:46.210Z,1.40
2017-12-11T07:24:13.674Z,1.50
2017-12-11T07:26:41.161Z,1.40
2017-12-11T07:29:08.585Z,1.40
2017-12-11T07:31:36.809Z,1.30
2017-12-11T07:34:04.201Z,1.30
2017-12-11T07:36:31.627Z,1.20
2017-12-11T07:38:59.817Z,1.30
2017-12-11T07:41:27.236Z,1.20
2017-12-11T07:43:54.658Z,1.30
2017-12-11T07:46:22.078Z,1.40
2017-12-11T07:48:49.490Z,1.40
2017-12-11T07:51:16.966Z,1.50
2017-12-11T07:53:45.150Z,1.40
2017-12-11T07:56:12.590Z,1.40
2017-12-11T07:58:39.994Z,1.40
2017-12-11T08:01:07.418Z,1.40
2017-12-11T08:03:34.830Z,1.40
2017-12-11T08:06:02.238Z,1.30
2017-12-11T08:08:29.759Z,1.30
2017-12-11T08:10:57.925Z,1.20
2017-12-11T08:13:26.091Z,1.20
2017-12-11T08:15:53.506Z,1.20
2017-12-11T08:18:20.921Z,1.20
2017-12-11T08:20:48.429Z,1.20
2017-12-11T08:23:15.848Z,1.20
2017-12-11T08:25:43.278Z,1.30
2017-12-11T08:28:10.703Z,1.30
2017-12-11T08:30:38.122Z,1.40
2017-12-11T08:33:05.546Z,1.40
2017-12-11T08:35:33.741Z,1.50
2017-12-11T08:38:01.913Z,1.50
2017-12-11T08:40:30.122Z,1.50
2017-12-11T08:42:58.282Z,1.60
2017-12-11T08:45:25.709Z,1.50
2017-12-11T08:47:53.175Z,1.60
2017-12-11T08:50:20.628Z,1.60
2017-12-11T08:52:48.039Z,1.60
2017-12-11T08:55:15.454Z,1.60
2017-12-11T08:57:42.854Z,1.60
2017-12-11T09:00:10.304Z,1.70
2017-12-11T09:02:37.750Z,1.70
2017-12-11T09:05:05.182Z,1.60
2017-12-11T09:07:32.590Z,1.60
2017-12-11T09:10:00.011Z,1.60
2017-12-11T09:12:27.430Z,1.50
2017-12-11T09:14:54.886Z,1.50
2017-12-11T09:17:22.272Z,1.50
2017-12-11T09:19:49.690Z,1.50
2017-12-11T09:22:17.107Z,1.50
2017-12-11T09:24:44.533Z,1.50
2017-12-11T09:27:11.934Z,1.60
2017-12-11T09:29:39.422Z,1.70
2017-12-11T09:32:06.832Z,1.90
2017-12-11T09:34:34.450Z,1.90
2017-12-11T09:37:02.609Z,1.70
2017-12-11T09:39:30.782Z,1.70
2017-12-11T09:41:58.216Z,1.70
2017-12-11T09:44:25.642Z,1.70
2017-12-11T09:46:53.062Z,1.70
2017-12-11T09:49:20.493Z,1.70
2017-12-11T09:51:47.912Z,1.70
2017-12-11T09:54:15.321Z,1.70
2017-12-11T09:56:42.753Z,1.80
2017-12-11T09:59:10.926Z,1.90
2017-12-11T10:01:38.471Z,1.90
2017-12-11T10:04:05.924Z,1.80
2017-12-11T10:06:33.386Z,1.80
2017-12-11T10:09:00.813Z,1.80
2017-12-11T10:11:28.263Z,1.80
2017-12-11T10:13:55.670Z,1.90
2017-12-11T10:16:23.883Z,1.80
2017-12-11T10:18:52.046Z,1.80
2017-12-11T10:21:20.249Z,1.90
2017-12-11T10:23:48.416Z,1.90
2017-12-11T10:26:16.601Z,1.90
2017-12-11T10:28:44.795Z,1.80
2017-12-11T10:31:13.021Z,1.80
2017-12-11T10:33:41.254Z,1.80
2017-12-11T10:36:09.442Z,1.80
2017-12-11T10:38:36.850Z,1.80
2017-12-11T10:41:04.280Z,1.80
2017-12-11T10:43:32.495Z,1.90
2017-12-11T10:45:59.913Z,1.90
2017-12-11T10:48:27.313Z,1.90
2017-12-11T10:50:54.725Z,1.90
2017-12-11T10:53:22.141Z,1.90
2017-12-11T10:55:50.323Z,2.00
2017-12-11T10:58:18.509Z,1.90
2017-12-11T11:00:46.724Z,1.90
2017-12-11T11:03:14.909Z,1.90
2017-12-11T11:05:43.073Z,1.90
2017-12-11T11:08:11.277Z,2.00
2017-12-11T11:10:38.706Z,2.00
2017-12-11T11:13:06.160Z,2.00
2017-12-11T11:15:33.578Z,2.10
2017-12-11T11:18:00.998Z,2.20
2017-12-11T11:20:28.411Z,2.20
2017-12-11T11:22:55.892Z,2.20
2017-12-11T11:25:23.302Z,2.10
2017-12-11T11:27:50.718Z,2.10
2017-12-11T11:30:18.137Z,2.00
2017-12-11T11:32:45.562Z,2.00
2017-12-11T11:35:13.003Z,2.00
2017-12-11T11:37:41.170Z,1.70
2017-12-11T11:40:08.600Z,1.70
2017-12-11T11:42:36.006Z,1.80
2017-12-11T11:45:03.433Z,1.80
2017-12-11T11:47:30.821Z,1.80
2017-12-11T11:49:58.230Z,1.80
2017-12-11T11:52:26.410Z,1.80
2017-12-11T11:54:54.599Z,1.70
2017-12-11T11:57:22.772Z,1.60
2017-12-11T11:59:51.725Z,1.60
2017-12-11T12:02:19.179Z,1.60
2017-12-11T12:04:46.648Z,1.70
2017-12-11T12:07:14.116Z,1.70
2017-12-11T12:09:41.566Z,1.70
2017-12-11T12:12:09.767Z,1.50
2017-12-11T12:14:37.201Z,1.50
2017-12-11T12:17:04.610Z,1.40
2017-12-11T12:19:32.118Z,1.30
2017-12-11T12:21:59.551Z,1.30
2017-12-11T12:24:27.706Z,1.40
2017-12-11T12:26:55.914Z,1.30
2017-12-11T12:29:23.494Z,1.30
2017-12-11T12:31:51.652Z,1.10
2017-12-11T12:34:19.822Z,1.00
2017-12-11T12:36:47.237Z,1.00
2017-12-11T12:39:14.645Z,1.00
2017-12-11T12:41:42.174Z,0.90
2017-12-11T12:44:10.383Z,0.90
2017-12-11T12:46:37.826Z,0.90
2017-12-11T12:49:05.397Z,1.00
2017-12-11T12:51:33.556Z,0.90
2017-12-11T12:54:01.757Z,1.00
2017-12-11T12:56:29.210Z,1.00
2017-12-11T12:58:57.400Z,0.90
2017-12-11T13:01:25.630Z,0.90
2017-12-11T13:03:53.033Z,0.80
2017-12-11T13:06:20.446Z,0.80
2017-12-11T13:08:47.862Z,0.80
2017-12-11T13:11:15.278Z,0.70
2017-12-11T13:13:42.703Z,0.70
2017-12-11T13:16:10.110Z,0.70
2017-12-11T13:18:37.578Z,0.90
2017-12-11T13:21:04.999Z,0.90
2017-12-11T13:23:32.414Z,1.00
2017-12-11T13:25:59.825Z,0.90
2017-12-11T13:28:27.241Z,1.00
2017-12-11T13:30:54.721Z,1.00
2017-12-11T13:33:22.130Z,0.90
2017-12-11T13:35:49.540Z,0.90
2017-12-11T13:38:17.734Z,0.90
2017-12-11T13:40:45.147Z,0.80
2017-12-11T13:43:12.580Z,0.80
2017-12-11T13:45:40.068Z,0.80
2017-12-11T13:48:07.475Z,0.90
2017-12-11T13:50:34.985Z,0.80
2017-12-11T13:53:02.414Z,0.80
2017-12-11T13:55:29.818Z,0.80
2017-12-11T13:57:57.227Z,0.80
2017-12-11T14:00:24.650Z,0.80
2017-12-11T14:02:52.090Z,0.80
2017-12-11T14:05:19.538Z,0.80
2017-12-11T14:07:46.944Z,0.80
2017-12-11T14:10:15.129Z,0.80
2017-12-11T14:12:43.327Z,0.90
2017-12-11T14:15:11.513Z,1.00
2017-12-11T14:17:38.991Z,0.90
2017-12-11T14:20:07.178Z,0.90
2017-12-11T14:22:35.355Z,0.90
2017-12-11T14:25:02.787Z,0.90
2017-12-11T14:27:30.258Z,0.90
2017-12-11T14:29:57.688Z,0.90
2017-12-11T14:32:25.102Z,0.90
2017-12-11T14:34:53.293Z,0.90
2017-12-11T14:37:20.790Z,0.90
2017-12-11T14:39:48.254Z,0.90
2017-12-11T14:42:15.743Z,1.00
2017-12-11T14:44:43.151Z,1.00
2017-12-11T14:47:10.566Z,1.00
2017-12-11T14:49:37.985Z,1.00
2017-12-11T14:52:05.401Z,1.10
2017-12-11T14:54:32.810Z,1.00
2017-12-11T14:57:00.231Z,1.00
2017-12-11T14:59:27.642Z,1.10
2017-12-11T15:01:55.071Z,1.10
2017-12-11T15:04:22.486Z,1.10
2017-12-11T15:06:49.898Z,1.10
2017-12-11T15:09:17.369Z,1.00
2017-12-11T15:11:44.777Z,1.00
2017-12-11T15:14:12.219Z,1.00
2017-12-11T15:16:39.688Z,1.00
2017-12-11T15:19:07.074Z,1.00
2017-12-11T15:21:34.486Z,1.00
2017-12-11T15:24:02.663Z,1.10
2017-12-11T15:26:30.851Z,1.20
2017-12-11T15:28:59.025Z,1.10
2017-12-11T15:31:26.456Z,1.10
2017-12-11T15:33:53.922Z,1.10
2017-12-11T15:36:21.373Z,1.00
2017-12-11T15:38:48.839Z,1.00
2017-12-11T15:41:16.283Z,1.00
2017-12-11T15:43:43.692Z,1.00
2017-12-11T15:46:11.144Z,1.00
2017-12-11T15:48:38.568Z,1.00
2017-12-11T15:51:06.082Z,1.00
2017-12-11T15:53:33.496Z,1.00
2017-12-11T15:56:00.930Z,1.10
2017-12-11T15:58:28.334Z,1.00
2017-12-11T16:00:55.743Z,1.00
2017-12-11T16:03:23.934Z,1.00
2017-12-11T16:05:52.114Z,1.00
2017-12-11T16:08:20.311Z,1.00
2017-12-11T16:10:47.801Z,1.00
2017-12-11T16:13:15.210Z,1.10
2017-12-11T16:15:42.662Z,1.10
2017-12-11T16:18:10.093Z,1.10
2017-12-11T16:20:37.494Z,1.00
2017-12-11T16:23:04.927Z,1.00
2017-12-11T16:25:32.369Z,1.00
2017-12-11T16:27:59.762Z,1.00
2017-12-11T16:30:27.173Z,1.10
2017-12-11T16:32:54.577Z,1.10
2017-12-11T16:35:22.802Z,1.10
2017-12-11T16:37:50.228Z,1.10
2017-12-11T16:40:18.434Z,1.20
2017-12-11T16:42:45.900Z,1.20
2017-12-11T16:45:13.411Z,1.30
2017-12-11T16:47:40.836Z,1.30
2017-12-11T16:50:08.273Z,1.30
2017-12-11T16:52:35.737Z,1.20
2017-12-11T16:55:03.086Z,1.30
2017-12-11T16:57:30.506Z,1.30
2017-12-11T16:59:57.913Z,1.30
2017-12-11T17:02:25.325Z,1.30
2017-12-11T17:04:52.747Z,1.30
2017-12-11T17:07:20.171Z,1.30
2017-12-11T17:09:48.341Z,1.40
2017-12-11T17:12:16.530Z,1.40
2017-12-11T17:14:44.705Z,1.50
2017-12-11T17:17:12.136Z,1.50
2017-12-11T17:19:39.576Z,1.50
2017-12-11T17:22:06.999Z,1.50
2017-12-11T17:24:34.418Z,1.50
2017-12-11T17:27:01.842Z,1.50
2017-12-11T17:29:30.055Z,1.50
2017-12-11T17:31:57.469Z,1.50
2017-12-11T17:34:24.909Z,1.50
2017-12-11T17:36:52.339Z,1.50
2017-12-11T17:39:19.766Z,1.60
2017-12-11T17:41:47.171Z,1.60
2017-12-11T17:44:14.581Z,1.60
2017-12-11T17:46:42.002Z,1.60
2017-12-11T17:49:09.501Z,1.60
2017-12-11T17:51:37.714Z,1.60
2017-12-11T17:54:05.167Z,1.50
2017-12-11T17:56:32.579Z,1.50
2017-12-11T17:59:00.005Z,1.50
2017-12-11T18:01:27.475Z,1.60
2017-12-11T18:03:54.942Z,1.50
2017-12-11T18:06:22.301Z,1.60
2017-12-11T18:08:49.784Z,1.60
2017-12-11T18:11:17.216Z,1.60
2017-12-11T18:13:44.636Z,1.60
2017-12-11T18:16:12.045Z,1.60
2017-12-11T18:18:39.504Z,1.70
2017-12-11T18:21:06.890Z,1.70
2017-12-11T18:23:35.084Z,1.70
2017-12-11T18:26:03.295Z,1.70
2017-12-11T18:28:31.481Z,1.70
2017-12-11T18:30:59.664Z,1.70
2017-12-11T18:33:27.059Z,1.70
2017-12-11T18:35:54.502Z,1.70
2017-12-11T18:38:21.914Z,1.70
2017-12-11T18:40:49.375Z,1.80
2017-12-11T18:43:16.815Z,1.80
2017-12-11T18:45:44.285Z,1.80
2017-12-11T18:48:11.686Z,1.90
2017-12-11T18:50:39.117Z,1.90
2017-12-11T18:53:06.681Z,2.00
2017-12-11T18:55:34.844Z,1.90
2017-12-11T18:58:03.074Z,1.90
2017-12-11T19:00:30.497Z,1.90
2017-12-11T19:02:57.920Z,1.90
2017-12-11T19:05:25.339Z,1.90
2017-12-11T19:07:52.757Z,1.90
2017-12-11T19:10:20.223Z,1.90
2017-12-11T19:12:47.641Z,2.00
2017-12-11T19:15:15.050Z,2.00
2017-12-11T19:17:43.215Z,2.00
2017-12-11T19:20:10.636Z,2.00
2017-12-11T19:22:38.193Z,2.00
2017-12-11T19:25:06.771Z,1.90
2017-12-11T19:27:34.945Z,1.90
2017-12-11T19:30:02.344Z,1.90
2017-12-11T19:32:29.774Z,1.90
2017-12-11T19:34:57.195Z,1.90
2017-12-11T19:37:24.598Z,1.90
2017-12-11T19:39:52.014Z,1.90
2017-12-11T19:42:19.425Z,1.90
2017-12-11T19:44:46.847Z,2.00
2017-12-11T19:47:14.328Z,2.00
2017-12-11T19:49:41.744Z,2.00
2017-12-11T19:52:09.192Z,2.10
2017-12-11T19:54:36.604Z,2.10
2017-12-11T19:57:04.770Z,2.10
2017-12-11T19:59:32.210Z,2.10
2017-12-11T20:01:59.646Z,2.10
2017-12-11T20:04:27.050Z,2.10
2017-12-11T20:06:54.483Z,2.10
2017-12-11T20:09:21.912Z,2.20
2017-12-11T20:11:49.356Z,2.10
2017-12-11T20:14:16.765Z,2.10
2017-12-11T20:16:44.990Z,2.10
2017-12-11T20:19:12.399Z,2.10
2017-12-11T20:21:39.909Z,2.10
2017-12-11T20:24:08.134Z,2.20
2017-12-11T20:26:35.594Z,2.10
2017-12-11T20:29:03.762Z,2.20
2017-12-11T20:31:31.198Z,2.20
2017-12-11T20:33:58.652Z,2.20
2017-12-11T20:36:26.058Z,2.30
2017-12-11T20:38:53.568Z,2.30
2017-12-11T20:41:21.034Z,2.30
2017-12-11T20:43:48.450Z,2.50
2017-12-11T20:46:15.876Z,2.60
2017-12-11T20:48:43.295Z,2.60
2017-12-11T20:51:10.721Z,2.60
2017-12-11T20:53:38.172Z,2.60
2017-12-11T20:56:05.648Z,2.60
2017-12-11T20:58:33.133Z,2.60
2017-12-11T21:01:00.582Z,2.70
2017-12-11T21:03:28.072Z,2.70
2017-12-11T21:05:55.493Z,2.80
2017-12-11T21:08:23.674Z,2.90
2017-12-11T21:10:51.850Z,2.90
2017-12-11T21:13:19.370Z,2.90
2017-12-11T21:15:46.776Z,3.00
2017-12-11T21:18:14.973Z,3.10
2017-12-11T21:20:42.390Z,3.10
2017-12-11T21:23:10.594Z,3.20
2017-12-11T21:25:38.020Z,3.20
2017-12-11T21:28:05.435Z,3.20
2017-12-11T21:30:32.850Z,3.30
2017-12-11T21:33:00.272Z,3.30
2017-12-11T21:35:27.673Z,3.40
2017-12-11T21:37:55.118Z,3.40
2017-12-11T21:40:22.589Z,3.50
2017-12-11T21:42:50.024Z,3.60
2017-12-11T21:45:18.217Z,3.70
2017-12-11T21:47:46.398Z,3.70
2017-12-11T21:50:14.617Z,3.80
2017-12-11T21:52:42.032Z,3.80
2017-12-11T21:55:10.398Z,3.90
2017-12-11T21:57:37.835Z,4.00
2017-12-11T22:00:05.300Z,4.10
2017-12-11T22:02:32.747Z,4.20
2017-12-11T22:05:00.933Z,4.50
2017-12-11T22:07:29.172Z,4.60
2017-12-11T22:09:56.582Z,4.60
2017-12-11T22:12:24.846Z,4.90
2017-12-11T22:14:52.292Z,4.90
2017-12-11T22:17:19.742Z,5.00
2017-12-11T22:19:47.162Z,5.10
2017-12-11T22:22:14.605Z,5.20
2017-12-11T22:24:42.031Z,5.30
2017-12-11T22:27:09.516Z,5.30
2017-12-11T22:29:37.004Z,5.30
2017-12-11T22:32:04.437Z,5.30
2017-12-11T22:34:32.619Z,5.40
2017-12-11T22:37:00.832Z,5.40
2017-12-11T22:39:28.290Z,5.40
2017-12-11T22:41:55.702Z,5.50
2017-12-11T22:44:23.180Z,5.40
2017-12-11T22:46:50.578Z,5.40
2017-12-11T22:49:18.851Z,5.40
2017-12-11T22:51:46.244Z,5.40
2017-12-11T22:54:13.691Z,5.50
2017-12-11T22:56:41.111Z,5.50
2017-12-11T22:59:08.577Z,5.50
2017-12-11T23:01:36.018Z,5.50
2017-12-11T23:04:04.226Z,5.50
2017-12-11T23:06:31.655Z,5.50
2017-12-11T23:08:59.057Z,5.50
2017-12-11T23:11:26.542Z,5.50
2017-12-11T23:13:54.243Z,5.50
2017-12-11T23:16:21.657Z,5.70
2017-12-11T23:18:49.837Z,5.70
2017-12-11T23:21:17.247Z,5.70
2017-12-11T23:23:44.678Z,5.80
2017-12-11T23:26:12.109Z,5.80
2017-12-11T23:28:39.588Z,5.80
2017-12-11T23:31:07.009Z,5.90
2017-12-11T23:33:35.191Z,5.90
2017-12-11T23:36:02.590Z,5.90
2017-12-11T23:38:30.031Z,5.90
2017-12-11T23:40:57.433Z,6.00
2017-12-11T23:43:25.022Z,6.00
2017-12-11T23:45:52.492Z,6.00
2017-12-11T23:48:20.658Z,6.00
2017-12-11T23:50:48.063Z,6.00
2017-12-11T23:53:15.527Z,6.00
2017-12-11T23:55:42.919Z,6.10
2017-12-11T23:58:10.396Z,6.10
